Time;durP1;ratioP1;P1;durP2;ratioP2;P2;SDS_P1;SDS_P2;PMS_P1;PMS_P2;Temp;Humidity;BMP_temperature;BMP_pressure;BME280_temperature;BME280_humidity;BME280_pressure;Samples;Min_cycle;Max_cycle;Signal;HPM_P1;HPM_P2
2021/07/30 00:00:05;;;;;;;2.55;2.00;;;22.00;85.30;;;;;;4960709;28;20058;-84
2021/07/30 00:02:32;;;;;;;2.40;2.20;;;22.00;85.40;;;;;;4960379;28;20548;-85
2021/07/30 00:04:58;;;;;;;3.25;2.60;;;22.00;85.90;;;;;;4960353;28;20027;-84
2021/07/30 00:07:25;;;;;;;2.42;2.22;;;22.00;86.60;;;;;;4960787;28;20034;-85
2021/07/30 00:09:51;;;;;;;2.60;2.25;;;22.00;87.10;;;;;;4944160;28;20031;-86
2021/07/30 00:12:17;;;;;;;2.70;2.28;;;22.00;87.00;;;;;;4978310;28;20038;-85
2021/07/30 00:14:43;;;;;;;2.95;2.30;;;22.00;87.20;;;;;;4959940;28;20030;-85
2021/07/30 00:17:10;;;;;;;2.25;1.92;;;21.90;86.90;;;;;;4965459;28;20428;-85
2021/07/30 00:19:36;;;;;;;2.25;2.00;;;21.90;86.90;;;;;;4979057;28;20037;-85
2021/07/30 00:22:01;;;;;;;2.28;2.00;;;21.90;87.60;;;;;;4979124;28;20031;-85
2021/07/30 00:24:27;;;;;;;3.60;2.45;;;22.00;88.20;;;;;;4977845;28;20117;-86
2021/07/30 00:26:53;;;;;;;3.00;2.30;;;21.90;88.40;;;;;;4995980;28;20026;-85
2021/07/30 00:29:18;;;;;;;3.15;2.17;;;21.90;88.90;;;;;;4978722;28;20052;-85
2021/07/30 00:31:44;;;;;;;3.17;2.45;;;21.90;89.00;;;;;;4979122;28;20026;-85
2021/07/30 00:34:10;;;;;;;2.03;1.80;;;21.80;89.20;;;;;;4979135;28;20057;-85
2021/07/30 00:36:36;;;;;;;2.33;2.03;;;21.80;88.70;;;;;;4961140;28;20089;-86
2021/07/30 00:39:01;;;;;;;2.97;1.90;;;21.80;88.90;;;;;;4976743;28;20497;-84
2021/07/30 00:41:27;;;;;;;2.20;2.00;;;21.70;88.80;;;;;;4959253;28;20031;-84
2021/07/30 00:43:53;;;;;;;2.38;1.80;;;21.70;88.50;;;;;;4959520;28;20027;-85
2021/07/30 00:46:19;;;;;;;3.28;1.90;;;21.60;88.10;;;;;;4959480;28;20485;-84
2021/07/30 00:48:45;;;;;;;3.08;1.98;;;21.60;87.70;;;;;;4959269;28;20359;-85
2021/07/30 00:51:13;;;;;;;3.25;2.28;;;21.60;87.60;;;;;;4961960;28;20473;-85
2021/07/30 00:53:40;;;;;;;3.63;2.40;;;21.50;88.00;;;;;;4980280;28;20058;-84
2021/07/30 00:56:06;;;;;;;4.93;2.80;;;21.50;88.10;;;;;;4975261;28;20027;-84
2021/07/30 00:58:33;;;;;;;3.08;2.47;;;21.50;88.30;;;;;;4975309;28;20022;-85
2021/07/30 01:01:02;;;;;;;3.40;2.60;;;21.40;88.50;;;;;;4974721;28;20035;-85
2021/07/30 01:03:28;;;;;;;3.45;2.33;;;21.30;88.60;;;;;;4974806;28;20085;-84
2021/07/30 01:05:55;;;;;;;3.13;2.13;;;21.20;89.10;;;;;;4975676;28;20126;-85
2021/07/30 01:08:21;;;;;;;3.38;2.08;;;21.10;89.10;;;;;;4959881;28;20031;-85
2021/07/30 01:10:50;;;;;;;2.53;2.00;;;21.00;89.20;;;;;;4976524;28;20027;-84
2021/07/30 01:13:16;;;;;;;1.98;1.77;;;21.00;89.30;;;;;;4970982;28;20069;-85
2021/07/30 01:15:42;;;;;;;2.67;2.05;;;21.00;89.00;;;;;;4974815;28;20038;-86
2021/07/30 01:18:08;;;;;;;2.72;2.17;;;21.00;88.70;;;;;;4974217;28;20034;-85
2021/07/30 01:20:38;;;;;;;2.53;1.98;;;21.00;88.80;;;;;;4974335;28;20038;-85
2021/07/30 01:23:07;;;;;;;2.80;2.03;;;21.00;89.30;;;;;;4976143;28;20030;-85
2021/07/30 01:25:33;;;;;;;3.45;1.80;;;20.90;88.80;;;;;;4974221;28;20034;-86
2021/07/30 01:27:59;;;;;;;2.92;1.80;;;20.90;88.90;;;;;;4974842;28;20027;-86
2021/07/30 01:30:27;;;;;;;2.33;2.13;;;20.80;88.70;;;;;;4974314;28;20038;-85
2021/07/30 01:32:53;;;;;;;2.30;2.10;;;20.80;88.90;;;;;;4974642;28;20418;-85
2021/07/30 01:35:19;;;;;;;2.40;1.98;;;20.80;89.00;;;;;;4975201;28;20116;-85
2021/07/30 01:37:44;;;;;;;3.30;2.28;;;20.80;89.10;;;;;;4974130;28;20027;-85
2021/07/30 01:40:10;;;;;;;3.15;2.13;;;20.80;89.00;;;;;;4974213;28;20173;-85
2021/07/30 01:42:39;;;;;;;3.05;2.42;;;20.80;89.10;;;;;;4975279;28;20456;-85
2021/07/30 01:45:07;;;;;;;4.93;3.20;;;20.80;89.60;;;;;;4975717;28;20027;-87
2021/07/30 01:47:34;;;;;;;3.33;2.83;;;20.80;90.10;;;;;;4958934;28;20041;-86
2021/07/30 01:50:01;;;;;;;3.40;2.90;;;20.70;90.10;;;;;;4975710;28;20466;-86
2021/07/30 01:52:27;;;;;;;4.88;3.03;;;20.70;90.20;;;;;;4974035;28;20113;-85
2021/07/30 01:54:52;;;;;;;4.13;2.88;;;20.70;90.20;;;;;;4974227;28;20027;-82
2021/07/30 01:57:19;;;;;;;3.55;2.95;;;20.60;90.30;;;;;;4958686;28;20130;-83
2021/07/30 01:59:45;;;;;;;3.33;2.80;;;20.60;90.30;;;;;;4958708;28;20547;-84
2021/07/30 02:02:12;;;;;;;2.85;2.55;;;20.60;90.30;;;;;;4974573;28;20035;-85
2021/07/30 02:04:38;;;;;;;3.47;2.92;;;20.50;90.30;;;;;;4975042;28;20030;-85
2021/07/30 02:07:03;;;;;;;3.40;2.80;;;20.50;90.40;;;;;;4973633;28;20385;-84
2021/07/30 02:09:30;;;;;;;2.90;2.53;;;20.50;90.30;;;;;;4973812;28;20034;-84
2021/07/30 02:11:56;;;;;;;2.83;2.35;;;20.40;90.30;;;;;;4964258;28;20031;-85
2021/07/30 02:14:28;;;;;;;4.00;2.53;;;20.40;90.40;;;;;;4954652;29;20493;-85
2021/07/30 02:17:00;;;;;;;2.60;2.40;;;20.40;90.50;;;;;;4964842;28;20030;-84
2021/07/30 02:19:26;;;;;;;3.88;2.53;;;20.40;90.60;;;;;;4967239;28;20027;-85
2021/07/30 02:21:54;;;;;;;3.47;2.15;;;20.40;90.60;;;;;;4964261;28;20030;-85
2021/07/30 02:24:24;;;;;;;3.70;2.55;;;20.40;90.40;;;;;;4956028;28;20059;-85
2021/07/30 02:26:49;;;;;;;3.10;2.60;;;20.40;90.50;;;;;;4961485;28;20031;-84
2021/07/30 02:29:15;;;;;;;3.05;2.60;;;20.30;90.60;;;;;;4973606;28;20031;-84
2021/07/30 02:31:41;;;;;;;3.92;2.92;;;20.30;90.70;;;;;;4973690;28;20481;-85
2021/07/30 02:34:07;;;;;;;3.90;3.03;;;20.40;90.90;;;;;;4974626;28;20035;-84
2021/07/30 02:36:33;;;;;;;4.57;2.80;;;20.30;90.90;;;;;;4974416;28;20141;-85
2021/07/30 02:38:59;;;;;;;2.90;2.60;;;20.30;90.90;;;;;;4974876;28;20502;-84
2021/07/30 02:41:24;;;;;;;2.70;2.50;;;20.30;90.90;;;;;;4973313;28;20027;-83
2021/07/30 02:43:50;;;;;;;4.35;2.65;;;20.30;91.00;;;;;;4957694;28;20378;-84
2021/07/30 02:46:16;;;;;;;4.45;2.63;;;20.30;91.00;;;;;;4973685;28;20027;-84
2021/07/30 02:48:43;;;;;;;2.78;2.42;;;20.40;90.90;;;;;;4975375;28;20447;-86
2021/07/30 02:51:09;;;;;;;3.10;2.55;;;20.40;90.80;;;;;;4962870;28;20431;-85
2021/07/30 02:53:35;;;;;;;3.38;2.40;;;20.40;90.70;;;;;;4979191;28;20094;-87
2021/07/30 02:56:00;;;;;;;3.63;2.85;;;20.40;90.70;;;;;;4977573;28;20027;-86
2021/07/30 02:58:26;;;;;;;2.67;2.40;;;20.40;90.80;;;;;;4976992;28;20113;-86
2021/07/30 03:00:52;;;;;;;3.00;2.50;;;20.40;90.80;;;;;;4977302;28;20061;-86
2021/07/30 03:03:19;;;;;;;4.28;2.60;;;20.50;90.80;;;;;;4977369;28;20513;-86
2021/07/30 03:05:47;;;;;;;3.38;2.47;;;20.50;91.00;;;;;;4978160;28;20039;-88
2021/07/30 03:08:13;;;;;;;3.47;2.58;;;20.50;91.00;;;;;;4977506;28;20470;-86
2021/07/30 03:10:39;;;;;;;3.72;2.58;;;20.50;90.90;;;;;;4977301;28;20053;-86
2021/07/30 03:13:04;;;;;;;4.22;2.85;;;20.60;91.00;;;;;;4977431;28;20496;-86
2021/07/30 03:15:30;;;;;;;2.97;2.65;;;20.60;90.90;;;;;;4980238;28;20504;-86
2021/07/30 03:17:56;;;;;;;3.97;2.70;;;20.60;90.80;;;;;;4977424;28;20386;-86
2021/07/30 03:20:21;;;;;;;3.88;2.58;;;20.70;90.80;;;;;;4977274;28;20058;-86
2021/07/30 03:22:47;;;;;;;5.03;3.55;;;20.70;90.70;;;;;;4977252;28;20031;-86
2021/07/30 03:25:13;;;;;;;4.60;3.53;;;20.80;90.60;;;;;;4977083;28;20057;-86
2021/07/30 03:27:38;;;;;;;5.45;3.50;;;20.90;90.60;;;;;;4976743;28;20026;-86
2021/07/30 03:30:05;;;;;;;4.28;3.20;;;20.90;90.50;;;;;;4976794;28;20385;-85
2021/07/30 03:32:32;;;;;;;4.18;3.17;;;20.90;90.50;;;;;;4976999;28;20041;-86
2021/07/30 03:34:58;;;;;;;3.45;2.65;;;21.00;90.50;;;;;;4978277;28;20042;-86
2021/07/30 03:37:23;;;;;;;5.45;2.90;;;21.00;90.40;;;;;;4976834;28;20062;-86
2021/07/30 03:39:49;;;;;;;4.90;2.90;;;21.00;90.50;;;;;;4978400;28;20452;-87
2021/07/30 03:42:16;;;;;;;4.28;3.30;;;21.00;90.50;;;;;;4976961;28;20037;-86
2021/07/30 03:44:42;;;;;;;5.30;3.05;;;21.10;90.50;;;;;;4978199;28;20035;-87
2021/07/30 03:47:08;;;;;;;3.47;2.90;;;21.10;90.50;;;;;;4976690;28;20026;-86
2021/07/30 03:49:35;;;;;;;3.70;3.10;;;21.10;90.50;;;;;;4976575;28;20401;-87
2021/07/30 03:52:00;;;;;;;4.43;3.38;;;21.20;90.40;;;;;;4979784;28;20026;-86
2021/07/30 03:54:26;;;;;;;4.03;3.53;;;21.20;90.40;;;;;;4975981;28;20049;-86
2021/07/30 03:56:52;;;;;;;5.18;3.20;;;21.30;90.20;;;;;;4976502;28;20042;-87
2021/07/30 03:59:17;;;;;;;4.13;3.13;;;21.30;90.20;;;;;;4977445;28;20481;-84
2021/07/30 04:01:47;;;;;;;3.53;3.00;;;21.30;90.10;;;;;;4977495;28;20106;-84
2021/07/30 04:04:14;;;;;;;3.40;2.83;;;21.40;90.10;;;;;;4977495;28;20085;-84
2021/07/30 04:06:40;;;;;;;4.55;3.35;;;21.40;90.10;;;;;;4976056;28;20038;-85
2021/07/30 04:09:12;;;;;;;5.70;3.80;;;21.40;90.10;;;;;;4959716;28;20122;-85
2021/07/30 04:11:38;;;;;;;5.85;3.80;;;21.40;90.10;;;;;;4966657;28;20078;-86
2021/07/30 04:14:07;;;;;;;4.30;3.55;;;21.40;90.00;;;;;;4954224;28;20047;-87
2021/07/30 04:16:40;;;;;;;5.07;3.50;;;21.50;90.10;;;;;;4963934;28;20029;-85
2021/07/30 04:19:07;;;;;;;5.28;3.30;;;21.50;90.10;;;;;;4955005;28;20039;-86
2021/07/30 04:21:37;;;;;;;5.05;3.20;;;21.60;90.10;;;;;;4975672;28;20034;-84
2021/07/30 04:24:03;;;;;;;4.07;3.00;;;21.60;90.00;;;;;;4961705;28;20027;-84
2021/07/30 04:26:29;;;;;;;3.95;3.17;;;21.70;90.10;;;;;;4956600;28;20382;-84
2021/07/30 04:28:54;;;;;;;4.70;3.17;;;21.70;90.20;;;;;;4956478;28;20030;-88
2021/07/30 04:31:20;;;;;;;3.72;3.33;;;21.80;90.30;;;;;;4957454;29;20038;-84
2021/07/30 04:33:46;;;;;;;4.15;3.50;;;21.90;90.20;;;;;;4955923;29;20039;-85
2021/07/30 04:36:16;;;;;;;5.07;4.00;;;21.90;90.30;;;;;;4956514;29;20027;-83
2021/07/30 04:38:43;;;;;;;;;;;22.10;90.30;;;;;;5000066;23;20054;-91
2021/07/30 04:41:09;;;;;;;3.92;3.35;;;22.10;90.50;;;;;;4985761;28;19918;-94
2021/07/30 04:43:35;;;;;;;4.10;3.42;;;22.20;90.00;;;;;;4989600;28;20034;-92
2021/07/30 04:46:01;;;;;;;4.93;4.22;;;22.20;89.40;;;;;;4986935;28;20061;-92
2021/07/30 04:48:27;;;;;;;5.13;4.15;;;22.30;89.30;;;;;;4985475;28;20765;-95
2021/07/30 04:50:53;;;;;;;6.78;4.38;;;22.30;89.00;;;;;;4987105;28;20218;-92
2021/07/30 04:53:19;;;;;;;6.30;4.55;;;22.30;89.30;;;;;;5001279;28;20052;-93
2021/07/30 04:55:44;;;;;;;5.00;4.30;;;22.40;89.00;;;;;;5001254;28;20054;-90
2021/07/30 04:58:10;;;;;;;6.07;4.60;;;22.40;88.90;;;;;;4998250;28;20105;-92
2021/07/30 05:00:36;;;;;;;6.25;4.40;;;22.50;88.50;;;;;;4996364;28;20057;-92
2021/07/30 05:03:02;;;;;;;7.50;6.28;;;22.50;88.50;;;;;;4996623;28;20062;-88
2021/07/30 05:05:29;;;;;;;7.90;5.95;;;22.60;88.60;;;;;;4998848;28;20014;-96
2021/07/30 05:07:55;;;;;;;7.75;5.53;;;22.70;88.40;;;;;;5001247;28;20077;-93
2021/07/30 05:12:56;;;;;;;6.30;5.50;;;22.80;88.00;;;;;;5245569;23;20466;-90
2021/07/30 05:15:22;;;;;;;6.78;5.28;;;22.90;87.80;;;;;;4977130;28;20023;-92
2021/07/30 05:17:51;;;;;;;6.15;4.95;;;23.10;87.60;;;;;;4984769;28;20530;-93
2021/07/30 05:20:22;;;;;;;6.55;5.40;;;23.20;87.60;;;;;;4992511;28;20038;-96
2021/07/30 05:22:48;;;;;;;7.38;4.88;;;23.30;87.20;;;;;;4980129;28;20035;-93
2021/07/30 05:25:14;;;;;;;7.50;6.05;;;23.40;87.00;;;;;;4961062;28;20470;-91
2021/07/30 05:27:39;;;;;;;6.05;5.45;;;23.50;86.80;;;;;;4979729;28;20050;-93
2021/07/30 05:30:06;;;;;;;24.42;20.65;;;23.60;86.50;;;;;;4978527;28;20454;-91
2021/07/30 05:32:31;;;;;;;21.85;18.10;;;23.70;86.40;;;;;;4976107;28;20122;-91
2021/07/30 05:34:57;;;;;;;13.40;11.40;;;23.80;86.00;;;;;;4976947;28;20470;-92
2021/07/30 05:37:23;;;;;;;11.00;9.30;;;24.00;85.40;;;;;;4975594;28;20051;-88
2021/07/30 05:39:48;;;;;;;9.75;8.02;;;24.10;85.00;;;;;;4974362;28;20041;-86
2021/07/30 05:42:14;;;;;;;9.13;7.47;;;24.30;84.60;;;;;;4974956;28;20477;-83
2021/07/30 05:44:40;;;;;;;7.70;6.72;;;24.30;83.50;;;;;;4974187;28;20069;-84
2021/07/30 05:47:11;;;;;;;8.63;6.38;;;24.40;83.00;;;;;;4977343;28;20031;-85
2021/07/30 05:49:37;;;;;;;7.03;5.80;;;24.50;82.80;;;;;;4974604;28;20077;-88
2021/07/30 05:52:04;;;;;;;25.70;19.67;;;24.60;81.90;;;;;;4974961;28;20409;-91
2021/07/30 05:54:32;;;;;;;16.63;12.93;;;24.70;81.10;;;;;;4973358;28;20077;-86
2021/07/30 05:56:58;;;;;;;12.60;8.93;;;24.80;80.80;;;;;;4975288;28;20094;-91
2021/07/30 05:59:24;;;;;;;8.43;7.13;;;24.80;80.30;;;;;;4972966;28;20057;-87
2021/07/30 06:01:50;;;;;;;9.27;6.43;;;24.90;79.90;;;;;;4972128;28;20067;-88
2021/07/30 06:04:15;;;;;;;7.88;6.00;;;25.00;79.90;;;;;;4970743;28;20382;-87
2021/07/30 06:06:41;;;;;;;7.85;6.78;;;25.00;78.70;;;;;;4971511;28;20520;-87
2021/07/30 06:09:07;;;;;;;8.45;6.80;;;25.00;77.90;;;;;;4972450;28;20033;-88
2021/07/30 06:11:33;;;;;;;6.13;5.20;;;25.00;77.70;;;;;;4973190;28;20137;-88
2021/07/30 06:13:58;;;;;;;6.47;5.38;;;25.00;77.80;;;;;;4973859;28;20085;-87
2021/07/30 06:16:24;;;;;;;7.03;5.50;;;25.10;78.00;;;;;;4974698;28;20023;-89
2021/07/30 06:18:50;;;;;;;7.07;5.38;;;25.10;77.50;;;;;;4992465;28;20335;-88
2021/07/30 06:21:21;;;;;;;5.88;5.00;;;25.20;77.50;;;;;;4974629;28;20037;-88
2021/07/30 06:23:47;;;;;;;6.00;5.40;;;25.40;77.40;;;;;;4991546;28;20101;-88
2021/07/30 06:26:13;;;;;;;7.10;6.05;;;25.40;77.20;;;;;;4993244;28;20106;-87
2021/07/30 06:28:39;;;;;;;5.82;5.13;;;25.40;76.60;;;;;;4976732;28;20019;-87
2021/07/30 06:31:05;;;;;;;7.30;5.40;;;25.50;76.50;;;;;;4976891;28;20022;-87
2021/07/30 06:33:30;;;;;;;7.57;5.72;;;25.60;76.50;;;;;;4977225;28;20038;-87
2021/07/30 06:35:56;;;;;;;7.25;5.38;;;25.70;76.10;;;;;;4994314;28;20034;-87
2021/07/30 06:38:23;;;;;;;6.43;5.43;;;25.70;75.80;;;;;;4989929;28;20550;-87
2021/07/30 06:40:48;;;;;;;6.97;5.40;;;25.80;75.90;;;;;;4994628;28;20101;-87
2021/07/30 06:43:14;;;;;;;7.13;5.82;;;26.00;75.70;;;;;;4976689;28;20481;-87
2021/07/30 06:45:42;;;;;;;6.80;5.43;;;26.00;74.50;;;;;;4976950;28;20026;-88
2021/07/30 06:48:07;;;;;;;7.20;5.35;;;26.10;74.20;;;;;;4979001;28;20031;-88
2021/07/30 06:50:33;;;;;;;5.30;4.78;;;26.20;73.60;;;;;;4977242;28;20104;-88
2021/07/30 06:53:00;;;;;;;5.88;4.78;;;26.20;73.30;;;;;;4978850;28;20042;-90
2021/07/30 06:55:25;;;;;;;6.70;5.30;;;26.40;73.00;;;;;;4978555;28;20023;-86
2021/07/30 06:57:51;;;;;;;7.43;5.70;;;26.40;72.20;;;;;;4996618;28;20030;-86
2021/07/30 07:00:17;;;;;;;5.40;4.82;;;26.50;71.60;;;;;;4997809;28;20507;-85
2021/07/30 07:02:43;;;;;;;5.45;4.85;;;26.50;71.20;;;;;;4997498;28;20105;-86
2021/07/30 07:05:09;;;;;;;5.13;4.55;;;26.60;71.30;;;;;;4995594;28;20030;-88
2021/07/30 07:07:34;;;;;;;5.18;4.45;;;26.70;71.30;;;;;;4994453;28;20026;-90
2021/07/30 07:10:00;;;;;;;6.20;5.32;;;26.80;71.20;;;;;;4976988;28;20396;-88
2021/07/30 07:12:26;;;;;;;6.03;5.13;;;26.90;70.50;;;;;;4993854;28;20062;-87
2021/07/30 07:14:52;;;;;;;7.72;5.38;;;27.00;69.90;;;;;;4993965;28;20358;-88
2021/07/30 07:17:19;;;;;;;5.63;5.03;;;27.00;69.60;;;;;;4994099;28;20026;-88
2021/07/30 07:19:45;;;;;;;7.30;6.38;;;27.10;69.50;;;;;;4994067;28;20041;-88
2021/07/30 07:22:11;;;;;;;6.78;6.07;;;27.20;69.30;;;;;;4994236;28;20453;-89
2021/07/30 07:24:38;;;;;;;6.60;5.25;;;27.20;68.30;;;;;;4976526;28;20121;-87
2021/07/30 07:27:05;;;;;;;5.85;4.63;;;27.30;68.40;;;;;;4994051;28;20081;-87
2021/07/30 07:29:32;;;;;;;5.72;4.72;;;27.40;68.20;;;;;;4976569;28;20476;-88
2021/07/30 07:31:58;;;;;;;7.57;5.80;;;27.50;67.80;;;;;;4994096;28;20097;-88
2021/07/30 07:34:23;;;;;;;5.65;5.05;;;27.50;66.60;;;;;;4977440;28;20038;-88
2021/07/30 07:36:49;;;;;;;5.35;4.65;;;27.60;66.60;;;;;;4979975;28;20491;-88
2021/07/30 07:39:15;;;;;;;5.10;4.55;;;27.60;66.60;;;;;;4980040;28;20022;-88
2021/07/30 07:41:46;;;;;;;5.43;4.68;;;27.70;66.60;;;;;;4980017;28;20058;-88
2021/07/30 07:44:17;;;;;;;5.53;4.38;;;27.80;66.50;;;;;;4999432;28;20033;-87
2021/07/30 07:46:47;;;;;;;5.28;4.43;;;28.00;66.30;;;;;;4998860;28;20492;-87
2021/07/30 07:49:13;;;;;;;5.45;4.57;;;28.10;66.40;;;;;;5006479;28;20045;-88
2021/07/30 07:51:38;;;;;;;5.22;4.22;;;28.20;66.30;;;;;;5010390;28;20487;-88
2021/07/30 07:54:04;;;;;;;5.80;4.72;;;28.30;65.70;;;;;;4987833;28;20099;-88
2021/07/30 07:56:30;;;;;;;5.22;4.70;;;28.40;65.30;;;;;;4980376;28;20098;-87
2021/07/30 07:58:56;;;;;;;5.70;4.55;;;28.50;64.90;;;;;;4979810;28;20050;-88
2021/07/30 08:01:21;;;;;;;4.88;4.38;;;28.60;64.20;;;;;;4980032;28;20027;-88
2021/07/30 08:03:47;;;;;;;5.07;4.40;;;28.60;63.90;;;;;;4997162;28;20037;-86
2021/07/30 08:06:20;;;;;;;5.30;4.47;;;28.60;64.00;;;;;;4996958;28;20032;-85
2021/07/30 08:08:47;;;;;;;5.15;4.65;;;28.70;62.40;;;;;;4979399;28;20033;-86
2021/07/30 08:11:13;;;;;;;5.90;4.60;;;28.70;63.10;;;;;;4996983;28;20435;-87
2021/07/30 08:13:39;;;;;;;5.45;4.88;;;28.80;62.90;;;;;;4979542;28;20038;-86
2021/07/30 08:16:05;;;;;;;5.65;5.05;;;28.90;63.70;;;;;;4979445;28;20034;-87
2021/07/30 08:18:32;;;;;;;6.15;4.95;;;29.20;64.50;;;;;;4996946;28;20372;-87
2021/07/30 08:20:59;;;;;;;4.72;4.22;;;29.50;65.00;;;;;;4996461;28;20030;-87
2021/07/30 08:23:25;;;;;;;4.68;4.18;;;30.00;64.80;;;;;;4979558;28;20389;-87
2021/07/30 08:25:51;;;;;;;4.13;3.72;;;30.40;64.30;;;;;;4996785;28;20023;-87
2021/07/30 08:28:17;;;;;;;5.03;4.53;;;30.90;64.40;;;;;;4996749;28;20109;-86
2021/07/30 08:30:43;;;;;;;5.20;4.70;;;31.30;62.40;;;;;;4979036;28;20093;-87
2021/07/30 08:33:09;;;;;;;4.80;4.30;;;31.60;61.60;;;;;;4998966;28;20215;-87
2021/07/30 08:35:34;;;;;;;6.32;4.50;;;31.80;60.70;;;;;;4984817;28;20030;-86
2021/07/30 08:38:03;;;;;;;4.47;4.07;;;32.00;60.80;;;;;;5004951;28;20084;-87
2021/07/30 08:40:33;;;;;;;5.70;4.20;;;32.30;60.20;;;;;;4997080;28;20033;-87
2021/07/30 08:43:00;;;;;;;4.68;4.13;;;32.60;58.90;;;;;;4979975;28;20485;-87
2021/07/30 08:45:26;;;;;;;6.63;4.30;;;32.90;58.70;;;;;;4997060;28;20022;-88
2021/07/30 08:47:53;;;;;;;4.68;4.13;;;33.10;57.80;;;;;;4985214;28;20053;-87
2021/07/30 08:50:18;;;;;;;5.85;4.32;;;33.40;57.40;;;;;;4997419;28;20022;-87
2021/07/30 08:52:44;;;;;;;4.57;4.18;;;33.60;56.60;;;;;;4978732;28;20038;-88
2021/07/30 08:55:12;;;;;;;4.90;4.40;;;33.80;56.70;;;;;;4980583;28;20031;-87
2021/07/30 08:57:41;;;;;;;4.30;3.90;;;33.90;56.20;;;;;;4996537;28;20105;-87
2021/07/30 09:00:11;;;;;;;;;;;34.20;56.00;;;;;;4979075;28;20120;-87
2021/07/30 09:02:37;;;;;;;4.55;3.95;;;34.20;50.70;;;;;;4995862;28;20364;-88
2021/07/30 09:05:25;;;;;;;4.57;3.72;;;34.50;56.10;;;;;;4996034;28;20034;-87
2021/07/30 09:07:50;;;;;;;4.07;3.67;;;34.90;50.30;;;;;;4995989;28;20054;-87
2021/07/30 09:10:38;;;;;;;6.18;4.40;;;35.00;54.20;;;;;;4978490;28;20054;-87
2021/07/30 09:13:19;;;;;;;4.40;4.00;;;35.00;50.10;;;;;;4978024;28;20490;-87
2021/07/30 09:16:09;;;;;;;4.03;3.63;;;34.90;51.10;;;;;;4995870;28;20026;-87
2021/07/30 09:18:43;;;;;;;4.50;4.10;;;35.00;47.70;;;;;;4978665;28;20050;-86
2021/07/30 09:21:28;;;;;;;5.18;4.60;;;35.10;50.40;;;;;;4996000;28;20034;-88
2021/07/30 09:23:56;;;;;;;5.63;5.00;;;35.20;45.90;;;;;;4995944;28;20121;-86
2021/07/30 09:26:31;;;;;;;6.72;4.40;;;35.10;49.70;;;;;;4995781;28;20049;-87
2021/07/30 09:29:01;;;;;;;4.80;4.10;;;35.00;47.70;;;;;;4978352;28;20050;-86
2021/07/30 09:31:59;;;;;;;4.70;4.20;;;35.10;49.90;;;;;;4978088;28;20053;-88
2021/07/30 09:34:37;;;;;;;4.37;3.97;;;35.20;47.90;;;;;;4962274;28;20563;-87
2021/07/30 09:37:12;;;;;;;4.77;4.27;;;35.30;48.40;;;;;;4977946;28;20062;-88
2021/07/30 09:39:43;;;;;;;4.45;4.05;;;35.50;47.70;;;;;;4995523;28;20118;-88
2021/07/30 09:42:17;;;;;;;4.47;4.07;;;35.30;48.00;;;;;;4977968;28;20034;-88
2021/07/30 09:44:47;;;;;;;4.85;4.30;;;35.20;48.50;;;;;;4995586;28;20031;-88
2021/07/30 09:47:24;;;;;;;5.68;4.53;;;35.20;48.10;;;;;;4978342;28;20023;-88
2021/07/30 09:50:04;;;;;;;5.05;4.55;;;35.30;44.10;;;;;;4995780;28;20517;-88
2021/07/30 09:52:36;;;;;;;4.75;4.28;;;35.20;44.40;;;;;;4977710;28;20481;-88
2021/07/30 09:55:07;;;;;;;4.47;4.07;;;35.30;46.70;;;;;;4978223;28;20504;-88
2021/07/30 09:57:38;;;;;;;4.93;4.13;;;35.60;46.40;;;;;;4979835;28;20374;-87
2021/07/30 10:00:06;;;;;;;6.43;4.00;;;35.80;45.60;;;;;;4995493;28;20022;-86
2021/07/30 10:02:38;;;;;;;4.40;4.00;;;35.90;45.70;;;;;;4994946;28;20472;-86
2021/07/30 10:05:06;;;;;;;4.57;4.05;;;36.20;44.30;;;;;;4977591;28;20030;-86
2021/07/30 10:07:33;;;;;;;4.95;3.63;;;36.50;45.30;;;;;;4994933;28;20031;-86
2021/07/30 10:10:39;;;;;;;4.55;4.15;;;36.70;45.10;;;;;;4995965;28;20027;-88
2021/07/30 10:12:58;;;;;;;4.20;3.80;;;37.10;44.80;;;;;;4991966;28;20362;-87
2021/07/30 10:15:24;;;;;;;4.00;3.60;;;37.40;44.10;;;;;;4994622;28;20109;-88
2021/07/30 10:17:56;;;;;;;4.32;3.92;;;37.50;43.40;;;;;;4977898;28;20181;-87
2021/07/30 10:20:24;;;;;;;4.20;3.80;;;37.80;43.10;;;;;;4994697;28;20041;-88
2021/07/30 10:23:05;;;;;;;4.13;3.65;;;38.00;42.60;;;;;;4977264;28;20380;-87
2021/07/30 10:25:42;;;;;;;4.53;4.00;;;38.00;41.20;;;;;;4994604;28;20026;-88
2021/07/30 10:28:26;;;;;;;4.57;3.95;;;38.00;40.60;;;;;;4995352;28;20034;-88
2021/07/30 10:30:59;;;;;;;4.35;3.95;;;38.10;41.80;;;;;;4995054;28;20022;-87
2021/07/30 10:33:31;;;;;;;4.35;3.95;;;38.00;40.70;;;;;;4977074;28;20049;-87
2021/07/30 10:36:01;;;;;;;4.97;4.05;;;37.60;41.00;;;;;;4994772;28;20022;-87
2021/07/30 10:38:27;;;;;;;4.55;3.97;;;37.30;42.00;;;;;;4976948;28;20026;-87
2021/07/30 10:40:59;;;;;;;4.65;4.25;;;37.00;42.70;;;;;;4977130;28;20481;-88
2021/07/30 10:43:33;;;;;;;5.05;3.95;;;36.90;42.80;;;;;;4994795;28;20101;-88
2021/07/30 10:46:11;;;;;;;4.45;4.05;;;36.70;42.90;;;;;;4994974;28;20065;-87
2021/07/30 10:48:44;;;;;;;4.63;4.13;;;36.70;43.10;;;;;;4977112;28;20536;-88
2021/07/30 10:51:21;;;;;;;4.80;4.32;;;36.90;40.70;;;;;;4977789;28;20124;-86
2021/07/30 10:53:54;;;;;;;4.20;3.80;;;37.20;40.40;;;;;;4994799;28;20092;-87
2021/07/30 10:56:19;;;;;;;4.30;3.90;;;37.20;41.50;;;;;;4977508;28;20102;-85
2021/07/30 10:58:45;;;;;;;4.55;3.80;;;37.40;41.50;;;;;;4994729;28;20026;-87
2021/07/30 11:01:12;;;;;;;4.30;3.90;;;37.70;41.30;;;;;;4976961;28;20101;-86
2021/07/30 11:03:51;;;;;;;4.80;4.22;;;38.00;41.30;;;;;;4977335;28;20511;-89
2021/07/30 11:06:30;;;;;;;4.57;4.00;;;38.40;39.30;;;;;;4994421;28;20026;-87
2021/07/30 11:08:58;;;;;;;;;;;38.60;40.70;;;;;;4994903;28;20022;-87
2021/07/30 11:11:37;;;;;;;4.20;3.80;;;38.60;38.50;;;;;;4997819;28;19992;-87
2021/07/30 11:14:25;;;;;;;4.60;4.10;;;38.80;38.00;;;;;;4980534;28;20034;-87
2021/07/30 11:17:07;;;;;;;4.18;3.78;;;38.90;38.10;;;;;;4997768;28;20105;-88
2021/07/30 11:19:36;;;;;;;4.15;3.75;;;38.90;38.10;;;;;;4980694;28;20030;-88
2021/07/30 11:22:05;;;;;;;4.40;4.00;;;39.10;40.00;;;;;;4980396;28;20027;-87
2021/07/30 11:24:37;;;;;;;4.78;3.90;;;39.30;39.80;;;;;;4980444;28;20030;-87
2021/07/30 11:27:02;;;;;;;4.50;4.10;;;39.50;38.80;;;;;;4980684;28;20030;-86
2021/07/30 11:29:29;;;;;;;4.60;4.20;;;39.40;38.70;;;;;;4980041;28;20049;-87
2021/07/30 11:32:00;;;;;;;4.35;3.95;;;39.10;38.90;;;;;;4997731;28;20034;-87
2021/07/30 11:34:37;;;;;;;4.38;3.97;;;38.90;39.20;;;;;;4980703;28;20050;-86
2021/07/30 11:37:16;;;;;;;4.65;4.25;;;39.00;39.20;;;;;;5002250;28;20057;-87
2021/07/30 11:39:46;;;;;;;;;;;39.10;38.50;;;;;;4988403;28;20026;-87
2021/07/30 11:42:30;;;;;;;5.10;4.10;;;38.80;38.90;;;;;;5003255;28;19960;-88
2021/07/30 11:45:04;;;;;;;5.53;4.40;;;38.90;39.10;;;;;;4980758;28;20027;-87
2021/07/30 11:47:32;;;;;;;4.88;4.13;;;39.10;39.30;;;;;;4998476;28;20029;-87
2021/07/30 11:50:07;;;;;;;4.60;4.20;;;39.10;39.00;;;;;;4980186;28;20034;-88
2021/07/30 11:52:34;;;;;;;5.50;4.30;;;38.80;38.70;;;;;;4980164;28;20388;-87
2021/07/30 11:55:13;;;;;;;4.70;4.30;;;38.10;39.40;;;;;;4980456;28;20070;-87
2021/07/30 11:57:39;;;;;;;4.82;4.43;;;37.80;39.40;;;;;;4980904;28;20030;-88
2021/07/30 12:00:05;;;;;;;4.82;4.35;;;37.80;40.10;;;;;;4980903;28;20050;-87
2021/07/30 12:02:31;;;;;;;4.50;4.10;;;38.00;39.90;;;;;;4979634;28;20088;-88
2021/07/30 12:04:58;;;;;;;7.07;4.70;;;38.40;39.90;;;;;;4980202;28;20082;-87
2021/07/30 12:07:30;;;;;;;4.40;4.00;;;38.70;39.70;;;;;;4979782;28;20117;-87
2021/07/30 12:10:00;;;;;;;4.10;3.70;;;39.10;39.10;;;;;;4997004;28;20023;-87
2021/07/30 12:12:32;;;;;;;4.80;4.30;;;39.40;38.50;;;;;;4997072;28;20058;-88
2021/07/30 12:14:59;;;;;;;4.88;4.20;;;39.70;38.30;;;;;;4979422;28;20030;-87
2021/07/30 12:17:29;;;;;;;4.93;4.15;;;39.80;37.90;;;;;;4979741;28;20034;-88
2021/07/30 12:20:21;;;;;;;4.13;3.72;;;39.30;37.50;;;;;;4996930;28;20023;-87
2021/07/30 12:22:47;;;;;;;4.95;4.45;;;38.70;38.20;;;;;;4992341;28;20477;-88
2021/07/30 12:25:17;;;;;;;5.53;4.10;;;38.20;38.70;;;;;;4979355;28;20033;-87
2021/07/30 12:27:44;;;;;;;4.57;4.18;;;37.90;38.80;;;;;;4996842;28;20034;-86
2021/07/30 12:30:27;;;;;;;4.75;4.32;;;37.90;39.30;;;;;;4979304;28;20031;-86
2021/07/30 12:32:52;;;;;;;6.30;4.35;;;38.10;37.70;;;;;;4978992;28;20053;-87
2021/07/30 12:35:29;;;;;;;4.97;3.88;;;38.10;39.00;;;;;;4996831;28;20056;-88
2021/07/30 12:38:04;;;;;;;4.93;4.15;;;38.40;39.20;;;;;;4996824;28;20023;-88
2021/07/30 12:40:30;;;;;;;4.25;3.83;;;38.90;38.40;;;;;;4996708;28;20062;-88
2021/07/30 12:43:12;;;;;;;4.25;3.85;;;39.10;38.30;;;;;;4996897;28;20473;-88
2021/07/30 12:45:42;;;;;;;6.55;4.07;;;39.40;37.50;;;;;;4980716;28;20049;-87
2021/07/30 12:48:08;;;;;;;4.55;4.10;;;39.60;37.70;;;;;;4982875;28;20029;-86
2021/07/30 12:50:39;;;;;;;4.78;4.30;;;39.80;37.70;;;;;;4982788;28;20026;-86
2021/07/30 12:53:09;;;;;;;4.35;3.90;;;40.30;36.80;;;;;;4980744;28;20030;-85
2021/07/30 12:56:01;;;;;;;4.65;4.25;;;40.60;36.50;;;;;;4979811;28;20385;-87